Terminal Aerodrome Forecast
Issued by NWS Cleveland, OH

Home | Current Version | Previous Version | Text Only | Print | Product List | Glossary Off
Versions: 1 2 3 4 5 6 7 8 9 10 11 12 13 14 15 16 17 18

000
FTUS41 KCLE 200920 AAA
TAFMFD
TAF AMD
KMFD 200920Z 2009/2106 13006KT 3SM BR SCT025 BKN050
      TEMPO 2009/2012 3/4SM BR
     FM201300 18012KT P6SM SCT020 BKN060
     FM201600 22018G28KT P6SM BKN050
     FM202300 25015G25KT 5SM -SHRA OVC035
      TEMPO 2023/2102 27020G40KT 2SM TSRA OVC020CB
     FM210400 27012KT P6SM BKN080=

USA.gov is the U.S. government's official web portal to all federal, state and local government web resources and services.